Time,TemperatureF,DewpointF,PressureIn,WindDirection,WindDirectionDegrees,WindSpeedMPH,WindSpeedGustMPH,Humidity,HourlyPrecipIn,Conditions,Clouds,dailyrainin,SoftwareType,DateUTC
2013-02-27 00:02:00,35.0,28.0,29.96,SSE,159,3.0,5.0,74,0.00,,,0.00,,2013-02-27 05:02:00,
2013-02-27 00:12:00,35.0,28.0,29.96,SSE,159,3.0,5.0,74,0.00,,,0.00,,2013-02-27 05:12:00,
2013-02-27 00:22:00,34.0,29.0,29.97,SE,141,2.0,10.0,83,0.00,,,0.00,,2013-02-27 05:22:00,
2013-02-27 00:32:00,33.0,29.0,29.95,SSE,147,0.0,2.0,85,0.00,,,0.00,,2013-02-27 05:32:00,
2013-02-27 00:42:00,33.0,29.0,29.95,SSE,147,0.0,2.0,85,0.00,,,0.00,,2013-02-27 05:42:00,
2013-02-27 00:52:00,33.0,29.0,29.94,South,169,1.0,4.0,85,0.00,,,0.00,,2013-02-27 05:52:00,
2013-02-27 01:02:00,33.0,29.0,29.94,South,169,0.0,2.0,86,0.00,,,0.00,,2013-02-27 06:02:00,
2013-02-27 01:11:00,33.0,29.0,29.94,South,169,0.0,2.0,86,0.00,,,0.00,,2013-02-27 06:11:00,
2013-02-27 01:21:00,32.0,29.0,29.96,South,182,0.0,4.0,88,0.01,,,0.01,,2013-02-27 06:21:00,
2013-02-27 01:33:00,31.0,28.0,29.94,South,182,0.0,1.0,90,0.03,,,0.03,,2013-02-27 06:33:00,
2013-02-27 01:42:00,31.0,28.0,29.94,South,182,0.0,1.0,90,0.03,,,0.03,,2013-02-27 06:42:00,
2013-02-27 01:52:00,31.0,29.0,29.95,South,182,0.0,1.0,91,0.04,,,0.04,,2013-02-27 06:52:00,
2013-02-27 02:01:00,31.0,29.0,29.93,South,182,0.0,0.0,92,0.05,,,0.05,,2013-02-27 07:01:00,
2013-02-27 02:12:00,31.0,29.0,29.93,South,182,0.0,0.0,92,0.05,,,0.05,,2013-02-27 07:12:00,
2013-02-27 02:21:00,31.0,29.0,29.94,South,182,0.0,0.0,92,0.06,,,0.07,,2013-02-27 07:21:00,
2013-02-27 02:32:00,31.0,29.0,29.94,South,182,0.0,0.0,93,0.06,,,0.09,,2013-02-27 07:32:00,
2013-02-27 02:42:00,31.0,29.0,29.94,South,182,0.0,0.0,93,0.06,,,0.09,,2013-02-27 07:42:00,
2013-02-27 02:52:00,31.0,29.0,29.93,South,182,0.0,0.0,93,0.07,,,0.11,,2013-02-27 07:52:00,
2013-02-27 03:01:00,31.0,29.0,29.91,South,182,0.0,0.0,93,0.10,,,0.15,,2013-02-27 08:01:00,
2013-02-27 03:11:00,31.0,29.0,29.91,South,182,0.0,0.0,93,0.10,,,0.15,,2013-02-27 08:11:00,
2013-02-27 03:21:00,31.0,29.0,29.90,South,182,0.0,0.0,94,0.11,,,0.18,,2013-02-27 08:21:00,
2013-02-27 03:32:00,31.0,31.0,29.89,South,182,0.0,0.0,100,0.12,,,0.21,,2013-02-27 08:32:00,
2013-02-27 03:42:00,31.0,31.0,29.89,South,182,0.0,0.0,100,0.12,,,0.21,,2013-02-27 08:42:00,
2013-02-27 03:53:00,31.0,29.0,29.88,South,182,0.0,0.0,94,0.13,,,0.24,,2013-02-27 08:53:00,
2013-02-27 04:02:00,31.0,29.0,29.86,South,184,0.0,0.0,94,0.12,,,0.27,,2013-02-27 09:02:00,
2013-02-27 04:12:00,31.0,29.0,29.86,South,184,0.0,0.0,94,0.12,,,0.27,,2013-02-27 09:12:00,
2013-02-27 04:22:00,31.0,29.0,29.85,South,188,0.0,0.0,94,0.12,,,0.30,,2013-02-27 09:22:00,
2013-02-27 04:32:00,31.0,30.0,29.85,South,187,0.0,0.0,95,0.12,,,0.33,,2013-02-27 09:32:00,
2013-02-27 04:41:00,31.0,30.0,29.85,South,187,0.0,0.0,95,0.12,,,0.33,,2013-02-27 09:41:00,
2013-02-27 04:52:00,31.0,30.0,29.84,South,188,0.0,0.0,95,0.11,,,0.35,,2013-02-27 09:52:00,
2013-02-27 05:01:00,32.0,31.0,29.83,South,188,0.0,0.0,95,0.11,,,0.38,,2013-02-27 10:01:00,
2013-02-27 05:12:00,32.0,31.0,29.83,South,188,0.0,0.0,95,0.11,,,0.38,,2013-02-27 10:12:00,
2013-02-27 05:22:00,32.0,31.0,29.81,South,188,0.0,0.0,95,0.09,,,0.39,,2013-02-27 10:22:00,
2013-02-27 05:32:00,32.0,31.0,29.80,South,187,0.0,0.0,95,0.08,,,0.41,,2013-02-27 10:32:00,
2013-02-27 05:42:00,32.0,31.0,29.80,South,187,0.0,0.0,95,0.08,,,0.41,,2013-02-27 10:42:00,
2013-02-27 05:53:00,32.0,31.0,29.80,South,188,0.0,0.0,95,0.08,,,0.43,,2013-02-27 10:53:00,
2013-02-27 06:02:00,32.0,31.0,29.78,South,188,0.0,0.0,95,0.07,,,0.44,,2013-02-27 11:02:00,
2013-02-27 06:12:00,32.0,31.0,29.78,South,188,0.0,0.0,95,0.07,,,0.44,,2013-02-27 11:12:00,
2013-02-27 06:22:00,32.0,31.0,29.78,South,191,0.0,0.0,95,0.06,,,0.45,,2013-02-27 11:22:00,
2013-02-27 06:32:00,32.0,31.0,29.76,South,191,0.0,0.0,95,0.04,,,0.45,,2013-02-27 11:32:00,
2013-02-27 06:42:00,32.0,31.0,29.76,South,191,0.0,0.0,95,0.04,,,0.45,,2013-02-27 11:42:00,
2013-02-27 06:52:00,32.0,31.0,29.76,SSW,193,0.0,0.0,95,0.04,,,0.47,,2013-02-27 11:52:00,
2013-02-27 07:02:00,32.0,31.0,29.74,SSW,193,0.0,0.0,95,0.05,,,0.49,,2013-02-27 12:02:00,
2013-02-27 07:13:00,32.0,31.0,29.74,SSW,193,0.0,0.0,95,0.05,,,0.49,,2013-02-27 12:13:00,
2013-02-27 07:22:00,32.0,31.0,29.73,SSW,192,0.0,0.0,95,0.05,,,0.50,,2013-02-27 12:22:00,
2013-02-27 07:33:00,32.0,31.0,29.73,SSW,193,0.0,0.0,95,0.06,,,0.51,,2013-02-27 12:33:00,
2013-02-27 07:42:00,32.0,31.0,29.73,SSW,193,0.0,0.0,95,0.06,,,0.51,,2013-02-27 12:42:00,
2013-02-27 08:02:00,33.0,32.0,29.73,SSW,194,0.0,0.0,96,0.03,,,0.52,,2013-02-27 13:02:00,
2013-02-27 08:11:00,33.0,32.0,29.73,SSW,194,0.0,0.0,96,0.03,,,0.52,,2013-02-27 13:11:00,
2013-02-27 08:22:00,33.0,32.0,29.72,SSW,194,0.0,0.0,96,0.03,,,0.53,,2013-02-27 13:22:00,
2013-02-27 08:32:00,33.0,32.0,29.71,SSW,194,0.0,0.0,96,0.02,,,0.53,,2013-02-27 13:32:00,
2013-02-27 08:42:00,33.0,32.0,29.71,SSW,194,0.0,0.0,96,0.02,,,0.53,,2013-02-27 13:42:00,
2013-02-27 08:52:00,34.0,33.0,29.70,SSW,194,0.0,0.0,96,0.03,,,0.54,,2013-02-27 13:52:00,
2013-02-27 09:02:00,33.0,32.0,29.69,SSW,200,0.0,0.0,96,0.05,,,0.57,,2013-02-27 14:02:00,
2013-02-27 09:12:00,33.0,32.0,29.69,SSW,200,0.0,0.0,96,0.05,,,0.57,,2013-02-27 14:12:00,
2013-02-27 09:22:00,33.0,32.0,29.68,SSW,200,0.0,0.0,96,0.06,,,0.59,,2013-02-27 14:22:00,
2013-02-27 09:32:00,34.0,33.0,29.68,SSW,200,0.0,0.0,96,0.10,,,0.63,,2013-02-27 14:32:00,
2013-02-27 09:42:00,34.0,33.0,29.68,SSW,200,0.0,0.0,96,0.10,,,0.63,,2013-02-27 14:42:00,
2013-02-27 09:52:00,33.0,32.0,29.67,SSW,200,0.0,1.0,96,0.12,,,0.66,,2013-02-27 14:52:00,
2013-02-27 10:02:00,34.0,33.0,29.66,SSW,200,0.0,1.0,96,0.11,,,0.67,,2013-02-27 15:02:00,
2013-02-27 10:12:00,34.0,33.0,29.66,SSW,200,0.0,1.0,96,0.11,,,0.67,,2013-02-27 15:12:00,
2013-02-27 10:22:00,34.0,33.0,29.65,SSW,200,0.0,2.0,96,0.10,,,0.68,,2013-02-27 15:22:00,
2013-02-27 10:32:00,34.0,33.0,29.65,SSW,200,0.0,2.0,96,0.06,,,0.69,,2013-02-27 15:32:00,
2013-02-27 10:42:00,34.0,33.0,29.65,SSW,200,0.0,2.0,96,0.06,,,0.69,,2013-02-27 15:42:00,
2013-02-27 10:52:00,34.0,33.0,29.63,SSW,200,0.0,0.0,96,0.03,,,0.69,,2013-02-27 15:52:00,
2013-02-27 11:02:00,35.0,34.0,29.62,SSW,199,0.0,2.0,96,0.03,,,0.70,,2013-02-27 16:02:00,
2013-02-27 11:12:00,35.0,34.0,29.62,SSW,199,0.0,2.0,96,0.03,,,0.70,,2013-02-27 16:12:00,
2013-02-27 11:22:00,35.0,34.0,29.61,WSW,245,0.0,3.0,96,0.04,,,0.72,,2013-02-27 16:22:00,
2013-02-27 11:32:00,36.0,35.0,29.60,WSW,246,0.0,3.0,96,0.04,,,0.73,,2013-02-27 16:32:00,
2013-02-27 11:42:00,36.0,35.0,29.60,WSW,246,0.0,3.0,96,0.04,,,0.73,,2013-02-27 16:42:00,
2013-02-27 11:52:00,36.0,35.0,29.59,WSW,246,0.0,2.0,96,0.05,,,0.74,,2013-02-27 16:52:00,
2013-02-27 12:02:00,36.0,35.0,29.58,WSW,246,0.0,2.0,96,0.06,,,0.76,,2013-02-27 17:02:00,
2013-02-27 12:11:00,36.0,35.0,29.58,WSW,246,0.0,2.0,96,0.06,,,0.76,,2013-02-27 17:11:00,
2013-02-27 12:21:00,37.0,36.0,29.58,WSW,246,1.0,3.0,96,0.05,,,0.76,,2013-02-27 17:21:00,
2013-02-27 12:32:00,37.0,36.0,29.57,WSW,245,0.0,3.0,96,0.04,,,0.77,,2013-02-27 17:32:00,
2013-02-27 12:42:00,37.0,36.0,29.57,WSW,245,0.0,3.0,96,0.04,,,0.77,,2013-02-27 17:42:00,
2013-02-27 12:52:00,37.0,36.0,29.56,WSW,246,0.0,3.0,96,0.04,,,0.78,,2013-02-27 17:52:00,
2013-02-27 13:02:00,37.0,36.0,29.55,WSW,246,0.0,3.0,96,0.05,,,0.81,,2013-02-27 18:02:00,
2013-02-27 13:11:00,37.0,36.0,29.55,WSW,246,0.0,3.0,96,0.05,,,0.81,,2013-02-27 18:11:00,
2013-02-27 13:22:00,38.0,37.0,29.54,WSW,245,2.0,3.0,96,0.08,,,0.84,,2013-02-27 18:22:00,
2013-02-27 13:32:00,38.0,37.0,29.54,WSW,246,0.0,4.0,96,0.09,,,0.86,,2013-02-27 18:32:00,
2013-02-27 13:42:00,38.0,37.0,29.54,WSW,246,0.0,4.0,96,0.09,,,0.86,,2013-02-27 18:42:00,
2013-02-27 13:52:00,38.0,37.0,29.54,WSW,246,0.0,3.0,96,0.11,,,0.89,,2013-02-27 18:52:00,
2013-02-27 14:01:00,38.0,37.0,29.53,WSW,246,0.0,2.0,96,0.08,,,0.89,,2013-02-27 19:01:00,
2013-02-27 14:12:00,38.0,37.0,29.53,WSW,246,0.0,2.0,96,0.08,,,0.89,,2013-02-27 19:12:00,
2013-02-27 14:21:00,39.0,38.0,29.52,WSW,246,0.0,0.0,96,0.07,,,0.91,,2013-02-27 19:21:00,
2013-02-27 14:32:00,38.0,37.0,29.52,WSW,246,0.0,2.0,96,0.08,,,0.94,,2013-02-27 19:32:00,
2013-02-27 14:42:00,38.0,37.0,29.52,WSW,246,0.0,2.0,96,0.08,,,0.94,,2013-02-27 19:42:00,
2013-02-27 14:52:00,38.0,37.0,29.52,WSW,246,0.0,2.0,96,0.07,,,0.96,,2013-02-27 19:52:00,
2013-02-27 15:01:00,37.0,36.0,29.52,WSW,246,0.0,1.0,96,0.08,,,0.97,,2013-02-27 20:01:00,
2013-02-27 15:12:00,37.0,36.0,29.52,WSW,246,0.0,1.0,96,0.08,,,0.97,,2013-02-27 20:12:00,
2013-02-27 15:22:00,37.0,36.0,29.51,WSW,246,0.0,2.0,96,0.06,,,0.97,,2013-02-27 20:22:00,
2013-02-27 15:32:00,38.0,37.0,29.52,WSW,246,0.0,0.0,97,0.04,,,0.98,,2013-02-27 20:32:00,
2013-02-27 15:42:00,38.0,37.0,29.52,WSW,246,0.0,0.0,97,0.04,,,0.98,,2013-02-27 20:42:00,
2013-02-27 15:52:00,38.0,37.0,29.51,WSW,244,1.0,4.0,97,0.03,,,0.99,,2013-02-27 20:52:00,
2013-02-27 16:02:00,38.0,37.0,29.50,South,181,1.0,5.0,96,0.02,,,0.99,,2013-02-27 21:02:00,
2013-02-27 16:11:00,38.0,37.0,29.50,South,181,1.0,5.0,96,0.02,,,0.99,,2013-02-27 21:11:00,
2013-02-27 16:22:00,39.0,38.0,29.49,South,172,2.0,7.0,96,0.02,,,0.99,,2013-02-27 21:22:00,
2013-02-27 16:32:00,39.0,38.0,29.49,SE,126,0.0,3.0,95,0.01,,,0.99,,2013-02-27 21:32:00,
2013-02-27 16:42:00,39.0,38.0,29.49,SE,126,0.0,3.0,95,0.01,,,0.99,,2013-02-27 21:42:00,
2013-02-27 16:52:00,38.0,37.0,29.49,North,355,3.0,6.0,95,0.00,,,0.99,,2013-02-27 21:52:00,
2013-02-27 17:01:00,38.0,37.0,29.49,NNE,15,2.0,5.0,95,0.01,,,1.00,,2013-02-27 22:01:00,
2013-02-27 17:11:00,38.0,37.0,29.49,NNE,15,2.0,5.0,95,0.01,,,1.00,,2013-02-27 22:11:00,
2013-02-27 17:21:00,38.0,36.0,29.50,SE,137,2.0,6.0,94,0.02,,,1.01,,2013-02-27 22:21:00,
2013-02-27 17:32:00,38.0,36.0,29.50,SE,137,0.0,2.0,94,0.04,,,1.03,,2013-02-27 22:32:00,
2013-02-27 17:42:00,38.0,36.0,29.50,SE,137,0.0,2.0,94,0.04,,,1.03,,2013-02-27 22:42:00,
2013-02-27 17:52:00,37.0,35.0,29.51,SE,137,0.0,2.0,94,0.06,,,1.05,,2013-02-27 22:52:00,
2013-02-27 18:01:00,37.0,35.0,29.52,WSW,240,1.0,4.0,94,0.06,,,1.06,,2013-02-27 23:01:00,
2013-02-27 18:11:00,37.0,35.0,29.52,WSW,240,1.0,4.0,94,0.06,,,1.06,,2013-02-27 23:11:00,
2013-02-27 18:21:00,37.0,35.0,29.52,SSW,210,2.0,5.0,94,0.05,,,1.06,,2013-02-27 23:21:00,
2013-02-27 18:32:00,37.0,35.0,29.52,South,171,1.0,6.0,94,0.04,,,1.07,,2013-02-27 23:32:00,
2013-02-27 18:42:00,37.0,35.0,29.52,South,171,1.0,6.0,94,0.04,,,1.07,,2013-02-27 23:42:00,
2013-02-27 18:53:00,37.0,36.0,29.52,South,171,0.0,3.0,95,0.03,,,1.08,,2013-02-27 23:53:00,
2013-02-27 19:02:00,36.0,35.0,29.53,South,171,0.0,2.0,95,0.03,,,1.09,,2013-02-28 00:02:00,
2013-02-27 19:12:00,36.0,35.0,29.53,South,171,0.0,2.0,95,0.03,,,1.09,,2013-02-28 00:12:00,
2013-02-27 19:21:00,36.0,35.0,29.53,SW,218,0.0,2.0,95,0.04,,,1.10,,2013-02-28 00:21:00,
2013-02-27 19:32:00,36.0,35.0,29.53,SW,218,0.0,0.0,95,0.03,,,1.10,,2013-02-28 00:32:00,
2013-02-27 19:42:00,36.0,35.0,29.53,SW,218,0.0,0.0,95,0.03,,,1.10,,2013-02-28 00:42:00,
2013-02-27 19:52:00,36.0,35.0,29.53,SW,218,0.0,0.0,95,0.02,,,1.10,,2013-02-28 00:52:00,
2013-02-27 20:01:00,36.0,35.0,29.53,SW,218,0.0,1.0,95,0.01,,,1.10,,2013-02-28 01:01:00,
2013-02-27 20:11:00,36.0,35.0,29.53,SW,218,0.0,1.0,95,0.01,,,1.10,,2013-02-28 01:11:00,
2013-02-27 20:22:00,36.0,35.0,29.53,SW,218,0.0,2.0,95,0.00,,,1.10,,2013-02-28 01:22:00,
2013-02-27 20:32:00,36.0,35.0,29.53,SW,218,1.0,1.0,95,0.01,,,1.11,,2013-02-28 01:32:00,
2013-02-27 20:42:00,36.0,35.0,29.53,SW,218,1.0,1.0,95,0.01,,,1.11,,2013-02-28 01:42:00,
2013-02-27 20:52:00,36.0,35.0,29.53,SW,218,0.0,0.0,96,0.01,,,1.11,,2013-02-28 01:52:00,
2013-02-27 21:01:00,36.0,35.0,29.54,SW,218,0.0,0.0,96,0.01,,,1.11,,2013-02-28 02:01:00,
2013-02-27 21:11:00,36.0,35.0,29.54,SW,218,0.0,0.0,96,0.01,,,1.11,,2013-02-28 02:11:00,
2013-02-27 21:22:00,36.0,35.0,29.54,SW,218,0.0,1.0,96,0.01,,,1.11,,2013-02-28 02:22:00,
2013-02-27 21:32:00,36.0,35.0,29.54,SW,218,0.0,3.0,96,0.01,,,1.12,,2013-02-28 02:32:00,
2013-02-27 21:41:00,36.0,35.0,29.54,SW,218,0.0,3.0,96,0.01,,,1.12,,2013-02-28 02:41:00,
2013-02-27 21:52:00,36.0,35.0,29.54,SW,218,0.0,3.0,96,0.01,,,1.12,,2013-02-28 02:52:00,
2013-02-27 22:01:00,36.0,35.0,29.54,South,182,1.0,3.0,96,0.01,,,1.12,,2013-02-28 03:01:00,
2013-02-27 22:11:00,36.0,35.0,29.54,South,182,1.0,3.0,96,0.01,,,1.12,,2013-02-28 03:11:00,
2013-02-27 22:21:00,35.0,34.0,29.55,South,182,1.0,3.0,96,0.01,,,1.12,,2013-02-28 03:21:00,
2013-02-27 22:32:00,35.0,34.0,29.55,South,182,0.0,2.0,96,0.00,,,1.12,,2013-02-28 03:32:00,
2013-02-27 22:42:00,35.0,34.0,29.55,South,182,0.0,2.0,96,0.00,,,1.12,,2013-02-28 03:42:00,
2013-02-27 22:52:00,35.0,34.0,29.55,South,182,0.0,2.0,96,0.00,,,1.12,,2013-02-28 03:52:00,
2013-02-27 23:02:00,35.0,34.0,29.55,South,182,0.0,0.0,96,0.01,,,1.13,,2013-02-28 04:02:00,
2013-02-27 23:11:00,35.0,34.0,29.55,South,182,0.0,0.0,96,0.01,,,1.13,,2013-02-28 04:11:00,
2013-02-27 23:22:00,35.0,34.0,29.55,South,182,0.0,0.0,96,0.01,,,1.13,,2013-02-28 04:22:00,
2013-02-27 23:32:00,34.0,33.0,29.54,South,182,0.0,0.0,96,0.01,,,1.13,,2013-02-28 04:32:00,
2013-02-27 23:42:00,34.0,33.0,29.54,South,182,0.0,0.0,96,0.01,,,1.13,,2013-02-28 04:42:00,
2013-02-27 23:52:00,34.0,33.0,29.53,South,182,0.0,0.0,96,0.01,,,1.13,,2013-02-28 04:52:00,